Accueil
METAR-TAF:

METAR-TAF

Aéroports :

Aéroport international de Bagdad

Bagdad, Irak

latitude: 33-15-45N, longitude: 44-14-04E, altitude: 35 m

Observation

Le bulletin a été fait il y a 56 minutes, à 00:00 UTC
Vent 6 kt de sud-est
Température 19°C
Humidité 88%
Pression 1015 hPa
Visibilité 10 km ou plus
pas de nuages en-dessous de 1500 mètres et pas de cumulonimbus.

METAR: ORBI 220000Z 13006KT CAVOK 19/17 Q1015 NOSIG

Heure: 03:56 (00:56 UTC)

Prévision

Le bulletin a été fait il y a 8 heures et 56 minutes, à 16:00 UTC
Prévision valable du 21 à 18 UTC au 22 à 18 UTC
Vent 12 kt de sud-est
Visibilité: 4000 m
Quelques nuages à une hauteur de 2500 ft, Cumulonimbus.
Nuages épars à une hauteur de 3000 ft
Nuages fragmentés à une hauteur de 3300 ft
Evoluant progressivement
du 22 à 01 UTC au 22 à 03 UTC
Visibilité: 8000 m

TAF: ORBI 211600Z 2118/2218 14012KT 4000 TSSHRA FEW025CB SCT030 BKN033 BECMG 2201/2203 8000 NSC

Observations et prévisions météorologiques de plus de 4000 aéroports (messages METAR et TAF).

Les stations disponibles sont représentées par des disques jaunes et rouges sur la carte.

Passer la souris dessus pour voir le nom de la station.

Cliquer dessus pour voir les observations et prévisions météorologiques.

Pour changer de carte: cliquez sur les boutons verts avec une croix noire pour zoomer, sur le bouton vert avec un tiret pour effectuer un zoom arrière, ou sur les flèches vertes pour les cartes adjacentes.


METAR-TAF: